Adak, Alaska
Current Conditions -  °F | °C
As of 10:36 AM on Saturday 25 Oct 2014 (Local Time) from PADK Reporting Station
Overcast Overcast  
Wind Chill:   Ceiling: 6000
Heat Index:   Visibility: 10mi
Dew Point:   Wind: 13mph
Humidity: 76%   Direction: 260°W
Pressure: 30.07"   Gusts: NA
Location:  51.88°N, 176.66°W
Report Text: PADK 251936Z AUTO 26011KT 10SM FEW038 BKN060 OVC065 06/02 A3007 RMK AO1
Loading
Personal Weather Stations






























Interactive Weather Map
Tropical Storm Tracking
New forecast layout! Learn more

10-Day Weather Forecast

Advertisements
Track Severe Weather on mobile